Archer City, Texas
Current Conditions -  °F | °C
As of 12:15 AM on Tuesday 21 Oct 2014 (Local Time) from KCWC Reporting Station
Clear Clear  
Wind Chill: 64°   Ceiling: Unl
Heat Index: 64°   Visibility: 10mi
Dew Point: 58°   Wind: 5mph
Humidity: 78%   Direction: 220°SW
Pressure: 30.05"   Gusts: NA
Location:  33.6°N, 98.63°W
Report Text: KCWC 210515Z AUTO 22004KT 10SM CLR 18/14 A3005 RMK AO2 T01800142
Loading
Personal Weather Stations






























Interactive Weather Map
Tropical Storm Tracking
New forecast layout! Learn more

10-Day Weather Forecast

Advertisements
Track Severe Weather on mobile